createdAt,value
2018-12-27T05:12:25.941Z,14.43
2018-12-27T05:22:54.165Z,15.63
2018-12-27T05:25:44.945Z,14.67
2018-12-27T05:29:01.966Z,11.70
2018-12-27T05:31:54.564Z,15.93
2018-12-27T05:35:06.609Z,16.80
2018-12-27T05:41:09.965Z,14.40
2018-12-27T05:43:47.785Z,11.67
2018-12-27T05:46:26.571Z,10.50
2018-12-27T05:52:14.963Z,24.60
2018-12-27T05:55:06.842Z,18.10
2018-12-27T06:01:22.057Z,23.17
2018-12-27T06:04:33.692Z,22.60
2018-12-27T06:07:40.743Z,18.53
2018-12-27T06:10:30.262Z,13.40
2018-12-27T06:17:01.545Z,15.17
2018-12-27T06:20:10.090Z,13.37
2018-12-27T06:22:59.603Z,15.27
2018-12-27T06:26:12.381Z,14.10
2018-12-27T06:32:17.543Z,14.40
2018-12-27T06:35:24.027Z,15.57
2018-12-27T06:38:14.769Z,16.10
2018-12-27T06:41:59.514Z,9.23
2018-12-27T06:44:51.182Z,12.47
2018-12-27T06:47:57.816Z,11.33
2018-12-27T07:14:21.984Z,14.37
2018-12-27T07:17:11.755Z,16.07
2018-12-27T07:20:21.671Z,18.07
2018-12-27T07:26:02.015Z,14.00
2018-12-27T07:28:42.629Z,14.30
2018-12-27T07:31:16.498Z,15.87
2018-12-27T07:33:50.700Z,17.33
2018-12-27T07:36:25.582Z,18.23
2018-12-27T07:38:59.587Z,14.13
2018-12-27T07:44:35.066Z,13.87
2018-12-27T07:47:10.312Z,10.67
2018-12-27T07:49:40.597Z,11.10
2018-12-27T07:52:18.762Z,16.27
2018-12-27T07:54:49.812Z,8.70
2018-12-27T07:57:27.163Z,11.33
2018-12-27T07:59:57.435Z,12.60
2018-12-27T08:05:26.890Z,12.23
2018-12-27T08:08:02.808Z,12.97
2018-12-27T08:10:33.111Z,12.33
2018-12-27T08:13:09.112Z,9.97
2018-12-27T16:46:57.303Z,25.70
2018-12-27T16:50:14.114Z,23.40
2018-12-27T16:53:20.595Z,29.07
2018-12-27T16:56:29.659Z,34.37
2018-12-27T16:59:22.701Z,29.23
2018-12-27T17:12:09.086Z,29.90
2018-12-27T17:15:16.324Z,32.70
2018-12-27T17:18:49.300Z,33.67
2018-12-27T17:25:11.212Z,34.00
2018-12-27T17:28:00.699Z,34.10
2018-12-27T17:37:49.392Z,42.50
2018-12-27T17:40:55.599Z,47.77
2018-12-27T17:43:45.516Z,44.80
2018-12-27T17:46:44.030Z,33.93
2018-12-27T17:50:00.683Z,40.30
2018-12-27T17:53:24.350Z,43.50
2018-12-27T17:56:13.858Z,43.40
2018-12-27T17:59:38.765Z,48.63
2018-12-27T18:08:59.162Z,32.50
2018-12-27T18:12:05.125Z,36.87
2018-12-27T18:14:59.102Z,40.43
2018-12-27T18:18:08.055Z,39.57
2018-12-27T18:23:56.887Z,26.30
2018-12-27T18:27:04.579Z,32.10
2018-12-27T18:29:54.635Z,25.40
2018-12-27T18:33:00.780Z,37.47
2018-12-27T18:36:08.943Z,46.17
2018-12-27T18:39:16.362Z,65.53
2018-12-27T18:45:19.587Z,43.40
2018-12-27T18:48:26.067Z,49.93
2018-12-27T18:51:17.235Z,94.93
2018-12-27T18:54:28.978Z,45.37
2018-12-27T18:57:35.285Z,50.50
2018-12-27T19:03:51.815Z,39.10
2018-12-27T19:07:01.378Z,34.80
2018-12-27T19:09:51.836Z,56.60
2018-12-27T19:13:15.490Z,54.83
2018-12-27T19:16:06.567Z,56.53
2018-12-27T19:19:30.226Z,55.07
2018-12-27T19:25:26.138Z,57.10
2018-12-27T19:28:35.163Z,77.63
2018-12-27T19:31:26.213Z,36.43
2018-12-27T19:37:52.144Z,42.33
2018-12-27T21:10:33.221Z,37.10
2018-12-27T21:26:54.688Z,42.43
2018-12-27T21:30:07.642Z,43.83
2018-12-27T21:32:58.866Z,35.70
2018-12-27T21:36:24.309Z,38.20
2018-12-27T21:46:43.283Z,36.97
2018-12-27T21:49:54.466Z,36.00
2018-12-27T21:53:21.993Z,36.93
2018-12-27T21:56:51.123Z,36.17
2018-12-27T21:59:58.169Z,43.13
2018-12-27T22:06:28.825Z,42.03
2018-12-27T22:23:28.367Z,59.90
2018-12-27T22:26:23.461Z,51.80
2018-12-27T22:29:12.861Z,47.63
2018-12-27T22:32:19.649Z,42.57
2018-12-27T22:38:52.610Z,52.97
2018-12-27T22:42:03.521Z,42.47
2018-12-27T22:44:55.162Z,43.00
2018-12-27T22:58:25.657Z,37.77
2018-12-27T23:11:38.284Z,43.87
2018-12-27T23:21:33.237Z,53.27
2018-12-27T23:27:46.407Z,43.27
